PWSweather.com
Personal Weather Stations
Station Observations
DW6827
Bills, Chadron, NE 69337

BillsChadron, NE 69337

Lat: 42.8275, Lon: -103.0094

Elevation: 3367

Station Type: Davis Vantage pro 2

http://billandcorena.com/weatherdisplay.htm

High Low Average
Temperature 69.9°F21.1°F 37.4°F3.0°F 55.3°F12.9°F
Dew Point 44.4°F6.9°F 34.7°F1.5°F 40.9°F4.9°F
Winds 18.0 mph -29.0 mph - Calm Calm 8.4 mph 13.5 mph
Wind Gusts 28.0 mph45.1 mph -- 12.7 mph20.4 mph
Humidity 92% 33% 62%
Pressure 29.93 in1013.50 in 29.73 in1006.80 in -
Precipitation 0.00 in0.00 in - -
Hour Temp Dew Point Humidity Winds Wind Gusts Pressure Precip Precip Rate Daily Precip Total
12:00 AM 44.9°F7.2°C 42.4°F5.8°C 91% 4.0 mph SSE6.4 kmh SSE 6.0 mph9.7 kmh 29.93 in1013.5 mb 0.00 in0.0 mm 0.00 in0.0 mm 0.00 in0.0 mm
12:10 AM 44.9°F7.2°C 42.4°F5.8°C 91% 4.0 mph SSE6.4 kmh SSE 5.0 mph8.0 kmh 29.90 in1012.5 mb 0.00 in0.0 mm 0.00 in0.0 mm 0.00 in0.0 mm
12:20 AM 44.8°F7.1°C 42.3°F5.7°C 91% 3.0 mph SSE4.8 kmh SSE 5.0 mph8.0 kmh 29.91 in1012.9 mb 0.00 in0.0 mm 0.00 in0.0 mm 0.00 in0.0 mm
12:30 AM 44.8°F7.1°C 42.0°F5.6°C 90% 4.0 mph SSE6.4 kmh SSE 6.0 mph9.7 kmh 29.89 in1012.2 mb 0.00 in0.0 mm 0.00 in0.0 mm 0.00 in0.0 mm
12:40 AM 44.6°F7.0°C 41.8°F5.4°C 90% 3.0 mph SE4.8 kmh SE 5.0 mph8.0 kmh 29.88 in1011.9 mb 0.00 in0.0 mm 0.00 in0.0 mm 0.00 in0.0 mm
12:50 AM 44.8°F7.1°C 42.0°F5.6°C 90% 3.0 mph SSW4.8 kmh SSW 6.0 mph9.7 kmh 29.90 in1012.5 mb 0.00 in0.0 mm 0.00 in0.0 mm 0.00 in0.0 mm
01:00 AM 45.0°F7.2°C 42.2°F5.7°C 90% 5.0 mph S8.0 kmh S 6.0 mph9.7 kmh 29.89 in1012.2 mb 0.00 in0.0 mm 0.00 in0.0 mm 0.00 in0.0 mm
01:10 AM 45.0°F7.2°C 42.2°F5.7°C 90% 6.0 mph SSE9.7 kmh SSE 10.0 mph16.1 kmh 29.89 in1012.2 mb 0.00 in0.0 mm 0.00 in0.0 mm 0.00 in0.0 mm
01:20 AM 45.1°F7.3°C 42.3°F5.7°C 90% 7.0 mph S11.3 kmh S 11.0 mph17.7 kmh 29.89 in1012.2 mb 0.00 in0.0 mm 0.00 in0.0 mm 0.00 in0.0 mm
01:30 AM 45.0°F7.2°C 42.2°F5.7°C 90% 4.0 mph SE6.4 kmh SE 8.0 mph12.9 kmh 29.88 in1011.9 mb 0.00 in0.0 mm 0.00 in0.0 mm 0.00 in0.0 mm
01:40 AM 44.8°F7.1°C 41.8°F5.4°C 89% 4.0 mph SSE6.4 kmh SSE 5.0 mph8.0 kmh 29.88 in1011.9 mb 0.00 in0.0 mm 0.00 in0.0 mm 0.00 in0.0 mm
01:50 AM 44.3°F6.8°C 41.3°F5.2°C 89% 3.0 mph SE4.8 kmh SE 4.0 mph6.4 kmh 29.87 in1011.5 mb 0.00 in0.0 mm 0.00 in0.0 mm 0.00 in0.0 mm
02:00 AM 43.7°F6.5°C 40.7°F4.8°C 89% 2.0 mph SE3.2 kmh SE 3.0 mph4.8 kmh 29.86 in1011.2 mb 0.00 in0.0 mm 0.00 in0.0 mm 0.00 in0.0 mm
02:10 AM 43.0°F6.1°C 40.3°F4.6°C 90% 3.0 mph S4.8 kmh S 4.0 mph6.4 kmh 29.87 in1011.5 mb 0.00 in0.0 mm 0.00 in0.0 mm 0.00 in0.0 mm
02:20 AM 43.0°F6.1°C 40.3°F4.6°C 90% 5.0 mph S8.0 kmh S 9.0 mph14.5 kmh 29.86 in1011.2 mb 0.00 in0.0 mm 0.00 in0.0 mm 0.00 in0.0 mm
02:30 AM 42.8°F6.0°C 40.1°F4.5°C 90% 5.0 mph SSE8.0 kmh SSE 8.0 mph12.9 kmh 29.85 in1010.8 mb 0.00 in0.0 mm 0.00 in0.0 mm 0.00 in0.0 mm
02:40 AM 42.7°F5.9°C 40.0°F4.4°C 90% 4.0 mph SE6.4 kmh SE 5.0 mph8.0 kmh 29.85 in1010.8 mb 0.00 in0.0 mm 0.00 in0.0 mm 0.00 in0.0 mm
02:50 AM 42.1°F5.6°C 39.4°F4.1°C 90% 3.0 mph S4.8 kmh S 6.0 mph9.7 kmh 29.85 in1010.8 mb 0.00 in0.0 mm 0.00 in0.0 mm 0.00 in0.0 mm
03:00 AM 42.7°F5.9°C 40.3°F4.6°C 91% 6.0 mph SSE9.7 kmh SSE 13.0 mph20.9 kmh 29.85 in1010.8 mb 0.00 in0.0 mm 0.00 in0.0 mm 0.00 in0.0 mm
03:10 AM 43.2°F6.2°C 40.5°F4.7°C 90% 7.0 mph SSE11.3 kmh SSE 7.0 mph11.3 kmh 29.84 in1010.5 mb 0.00 in0.0 mm 0.00 in0.0 mm 0.00 in0.0 mm
03:20 AM 43.0°F6.1°C 40.0°F4.4°C 89% 5.0 mph SSE8.0 kmh SSE 8.0 mph12.9 kmh 29.84 in1010.5 mb 0.00 in0.0 mm 0.00 in0.0 mm 0.00 in0.0 mm
03:30 AM 42.8°F6.0°C 40.1°F4.5°C 90% 5.0 mph SE8.0 kmh SE 8.0 mph12.9 kmh 29.83 in1010.2 mb 0.00 in0.0 mm 0.00 in0.0 mm 0.00 in0.0 mm
03:40 AM 42.4°F5.8°C 39.4°F4.1°C 89% 5.0 mph SE8.0 kmh SE 7.0 mph11.3 kmh 29.83 in1010.2 mb 0.00 in0.0 mm 0.00 in0.0 mm 0.00 in0.0 mm
03:50 AM 42.2°F5.7°C 39.5°F4.2°C 90% 4.0 mph S6.4 kmh S 7.0 mph11.3 kmh 29.83 in1010.2 mb 0.00 in0.0 mm 0.00 in0.0 mm 0.00 in0.0 mm
04:00 AM 42.1°F5.6°C 39.4°F4.1°C 90% 4.0 mph SSE6.4 kmh SSE 6.0 mph9.7 kmh 29.82 in1009.8 mb 0.00 in0.0 mm 0.00 in0.0 mm 0.00 in0.0 mm
04:10 AM 41.8°F5.4°C 39.1°F3.9°C 90% 4.0 mph S6.4 kmh S 8.0 mph12.9 kmh 29.81 in1009.5 mb 0.00 in0.0 mm 0.00 in0.0 mm 0.00 in0.0 mm
04:20 AM 42.1°F5.6°C 39.1°F3.9°C 89% 7.0 mph SSE11.3 kmh SSE 9.0 mph14.5 kmh 29.80 in1009.1 mb 0.00 in0.0 mm 0.00 in0.0 mm 0.00 in0.0 mm
04:30 AM 42.3°F5.7°C 39.0°F3.9°C 88% 5.0 mph SSE8.0 kmh SSE 8.0 mph12.9 kmh 29.80 in1009.1 mb 0.00 in0.0 mm 0.00 in0.0 mm 0.00 in0.0 mm
04:40 AM 42.1°F5.6°C 38.5°F3.6°C 87% 4.0 mph SSE6.4 kmh SSE 7.0 mph11.3 kmh 29.79 in1008.8 mb 0.00 in0.0 mm 0.00 in0.0 mm 0.00 in0.0 mm
04:50 AM 41.8°F5.4°C 38.2°F3.4°C 87% 2.0 mph S3.2 kmh S 4.0 mph6.4 kmh 29.79 in1008.8 mb 0.00 in0.0 mm 0.00 in0.0 mm 0.00 in0.0 mm
05:00 AM 41.3°F5.2°C 37.4°F3.0°C 86% Calm Calm 1.0 mph1.6 kmh 29.79 in1008.8 mb 0.00 in0.0 mm 0.00 in0.0 mm 0.00 in0.0 mm
05:10 AM 40.5°F4.7°C 36.9°F2.7°C 87% Calm Calm 2.0 mph3.2 kmh 29.79 in1008.8 mb 0.00 in0.0 mm 0.00 in0.0 mm 0.00 in0.0 mm
05:20 AM 40.0°F4.4°C 36.7°F2.6°C 88% Calm Calm -- 29.79 in1008.8 mb 0.00 in0.0 mm 0.00 in0.0 mm 0.00 in0.0 mm
05:30 AM 39.2°F4.0°C 35.9°F2.2°C 88% Calm Calm -- 29.79 in1008.8 mb 0.00 in0.0 mm 0.00 in0.0 mm 0.00 in0.0 mm
05:40 AM 38.4°F3.6°C 35.7°F2.1°C 90% Calm Calm -- 29.78 in1008.5 mb 0.00 in0.0 mm 0.00 in0.0 mm 0.00 in0.0 mm
05:50 AM 37.4°F3.0°C 34.7°F1.5°C 90% Calm Calm -- 29.78 in1008.5 mb 0.00 in0.0 mm 0.00 in0.0 mm 0.00 in0.0 mm
06:00 AM 37.7°F3.2°C 35.6°F2.0°C 92% Calm Calm 4.0 mph6.4 kmh 29.78 in1008.5 mb 0.00 in0.0 mm 0.00 in0.0 mm 0.00 in0.0 mm
06:10 AM 40.5°F4.7°C 38.4°F3.6°C 92% 2.0 mph SE3.2 kmh SE 7.0 mph11.3 kmh 29.78 in1008.5 mb 0.00 in0.0 mm 0.00 in0.0 mm 0.00 in0.0 mm
06:20 AM 44.5°F6.9°C 40.0°F4.4°C 84% 5.0 mph S8.0 kmh S 12.0 mph19.3 kmh 29.77 in1008.1 mb 0.00 in0.0 mm 0.00 in0.0 mm 0.00 in0.0 mm
06:30 AM 46.7°F8.2°C 40.2°F4.6°C 78% 7.0 mph S11.3 kmh S 12.0 mph19.3 kmh 29.77 in1008.1 mb 0.00 in0.0 mm 0.00 in0.0 mm 0.00 in0.0 mm
06:40 AM 47.8°F8.8°C 40.3°F4.6°C 75% 8.0 mph S12.9 kmh S 13.0 mph20.9 kmh 29.78 in1008.5 mb 0.00 in0.0 mm 0.00 in0.0 mm 0.00 in0.0 mm
06:50 AM 48.5°F9.2°C 40.6°F4.8°C 74% 6.0 mph SSW9.7 kmh SSW 9.0 mph14.5 kmh 29.78 in1008.5 mb 0.00 in0.0 mm 0.00 in0.0 mm 0.00 in0.0 mm
07:00 AM 49.4°F9.7°C 40.7°F4.8°C 72% 6.0 mph S9.7 kmh S 15.0 mph24.1 kmh 29.78 in1008.5 mb 0.00 in0.0 mm 0.00 in0.0 mm 0.00 in0.0 mm
07:10 AM 50.7°F10.4°C 41.3°F5.2°C 70% 9.0 mph S14.5 kmh S 14.0 mph22.5 kmh 29.78 in1008.5 mb 0.00 in0.0 mm 0.00 in0.0 mm 0.00 in0.0 mm
07:20 AM 51.6°F10.9°C 41.4°F5.2°C 68% 8.0 mph S12.9 kmh S 10.0 mph16.1 kmh 29.77 in1008.1 mb 0.00 in0.0 mm 0.00 in0.0 mm 0.00 in0.0 mm
07:30 AM 52.3°F11.3°C 41.7°F5.4°C 67% 9.0 mph S14.5 kmh S 14.0 mph22.5 kmh 29.78 in1008.5 mb 0.00 in0.0 mm 0.00 in0.0 mm 0.00 in0.0 mm
07:40 AM 53.0°F11.7°C 42.7°F5.9°C 68% 11.0 mph S17.7 kmh S 17.0 mph27.4 kmh 29.78 in1008.5 mb 0.00 in0.0 mm 0.00 in0.0 mm 0.00 in0.0 mm
07:50 AM 53.7°F12.1°C 41.8°F5.4°C 64% 10.0 mph S16.1 kmh S 16.0 mph25.7 kmh 29.78 in1008.5 mb 0.00 in0.0 mm 0.00 in0.0 mm 0.00 in0.0 mm
08:00 AM 54.4°F12.4°C 41.2°F5.1°C 61% 10.0 mph S16.1 kmh S 18.0 mph29.0 kmh 29.78 in1008.5 mb 0.00 in0.0 mm 0.00 in0.0 mm 0.00 in0.0 mm
08:10 AM 54.8°F12.7°C 42.4°F5.8°C 63% 11.0 mph S17.7 kmh S 15.0 mph24.1 kmh 29.77 in1008.1 mb 0.00 in0.0 mm 0.00 in0.0 mm 0.00 in0.0 mm
08:20 AM 55.2°F12.9°C 42.0°F5.6°C 61% 12.0 mph S19.3 kmh S 20.0 mph32.2 kmh 29.77 in1008.1 mb 0.00 in0.0 mm 0.00 in0.0 mm 0.00 in0.0 mm
08:30 AM 55.6°F13.1°C 42.4°F5.8°C 61% 14.0 mph S22.5 kmh S 18.0 mph29.0 kmh 29.77 in1008.1 mb 0.00 in0.0 mm 0.00 in0.0 mm 0.00 in0.0 mm
08:40 AM 56.2°F13.4°C 42.1°F5.6°C 59% 14.0 mph S22.5 kmh S 21.0 mph33.8 kmh 29.77 in1008.1 mb 0.00 in0.0 mm 0.00 in0.0 mm 0.00 in0.0 mm
08:50 AM 56.7°F13.7°C 42.1°F5.6°C 58% 14.0 mph S22.5 kmh S 22.0 mph35.4 kmh 29.78 in1008.5 mb 0.00 in0.0 mm 0.00 in0.0 mm 0.00 in0.0 mm
09:00 AM 57.2°F14.0°C 41.6°F5.3°C 56% 15.0 mph S24.1 kmh S 23.0 mph37.0 kmh 29.78 in1008.5 mb 0.00 in0.0 mm 0.00 in0.0 mm 0.00 in0.0 mm
09:10 AM 58.0°F14.4°C 41.9°F5.5°C 55% 14.0 mph S22.5 kmh S 22.0 mph35.4 kmh 29.77 in1008.1 mb 0.00 in0.0 mm 0.00 in0.0 mm 0.00 in0.0 mm
09:20 AM 58.5°F14.7°C 43.3°F6.3°C 57% 14.0 mph S22.5 kmh S 21.0 mph33.8 kmh 29.77 in1008.1 mb 0.00 in0.0 mm 0.00 in0.0 mm 0.00 in0.0 mm
09:30 AM 58.5°F14.7°C 41.9°F5.5°C 54% 15.0 mph S24.1 kmh S 23.0 mph37.0 kmh 29.77 in1008.1 mb 0.00 in0.0 mm 0.00 in0.0 mm 0.00 in0.0 mm
09:40 AM 58.2°F14.6°C 42.1°F5.6°C 55% 16.0 mph S25.7 kmh S 26.0 mph41.8 kmh 29.77 in1008.1 mb 0.00 in0.0 mm 0.00 in0.0 mm 0.00 in0.0 mm
09:50 AM 59.4°F15.2°C 43.7°F6.5°C 56% 16.0 mph S25.7 kmh S 21.0 mph33.8 kmh 29.77 in1008.1 mb 0.00 in0.0 mm 0.00 in0.0 mm 0.00 in0.0 mm
10:00 AM 60.1°F15.6°C 42.9°F6.1°C 53% 15.0 mph S24.1 kmh S 25.0 mph40.2 kmh 29.77 in1008.1 mb 0.00 in0.0 mm 0.00 in0.0 mm 0.00 in0.0 mm
10:10 AM 60.1°F15.6°C 41.9°F5.5°C 51% 17.0 mph S27.4 kmh S 26.0 mph41.8 kmh 29.77 in1008.1 mb 0.00 in0.0 mm 0.00 in0.0 mm 0.00 in0.0 mm
10:20 AM 60.4°F15.8°C 43.2°F6.2°C 53% 15.0 mph S24.1 kmh S 20.0 mph32.2 kmh 29.77 in1008.1 mb 0.00 in0.0 mm 0.00 in0.0 mm 0.00 in0.0 mm
10:30 AM 60.8°F16.0°C 42.5°F5.8°C 51% 14.0 mph S22.5 kmh S 19.0 mph30.6 kmh 29.77 in1008.1 mb 0.00 in0.0 mm 0.00 in0.0 mm 0.00 in0.0 mm
10:40 AM 62.1°F16.7°C 44.3°F6.8°C 52% 13.0 mph S20.9 kmh S 19.0 mph30.6 kmh 29.77 in1008.1 mb 0.00 in0.0 mm 0.00 in0.0 mm 0.00 in0.0 mm
10:50 AM 62.8°F17.1°C 43.9°F6.6°C 50% 12.0 mph SSW19.3 kmh SSW 20.0 mph32.2 kmh 29.77 in1008.1 mb 0.00 in0.0 mm 0.00 in0.0 mm 0.00 in0.0 mm
11:00 AM 62.8°F17.1°C 41.7°F5.4°C 46% 15.0 mph SSW24.1 kmh SSW 20.0 mph32.2 kmh 29.76 in1007.8 mb 0.00 in0.0 mm 0.00 in0.0 mm 0.00 in0.0 mm
11:10 AM 63.5°F17.5°C 40.6°F4.8°C 43% 15.0 mph SW24.1 kmh SW 25.0 mph40.2 kmh 29.77 in1008.1 mb 0.00 in0.0 mm 0.00 in0.0 mm 0.00 in0.0 mm
11:20 AM 63.8°F17.7°C 40.9°F4.9°C 43% 17.0 mph SW27.4 kmh SW 27.0 mph43.5 kmh 29.77 in1008.1 mb 0.00 in0.0 mm 0.00 in0.0 mm 0.00 in0.0 mm
11:30 AM 63.3°F17.4°C 40.4°F4.7°C 43% 18.0 mph SW29.0 kmh SW 23.0 mph37.0 kmh 29.77 in1008.1 mb 0.00 in0.0 mm 0.00 in0.0 mm 0.00 in0.0 mm
11:40 AM 63.4°F17.4°C 39.9°F4.4°C 42% 17.0 mph SSW27.4 kmh SSW 26.0 mph41.8 kmh 29.77 in1008.1 mb 0.00 in0.0 mm 0.00 in0.0 mm 0.00 in0.0 mm
11:50 AM 64.8°F18.2°C 41.2°F5.1°C 42% 17.0 mph SW27.4 kmh SW 28.0 mph45.1 kmh 29.77 in1008.1 mb 0.00 in0.0 mm 0.00 in0.0 mm 0.00 in0.0 mm
12:00 PM 65.4°F18.6°C 42.3°F5.7°C 43% 16.0 mph SW25.7 kmh SW 21.0 mph33.8 kmh 29.77 in1008.1 mb 0.00 in0.0 mm 0.00 in0.0 mm 0.00 in0.0 mm
12:10 PM 64.9°F18.3°C 40.0°F4.4°C 40% 18.0 mph SW29.0 kmh SW 24.0 mph38.6 kmh 29.76 in1007.8 mb 0.00 in0.0 mm 0.00 in0.0 mm 0.00 in0.0 mm
12:20 PM 64.4°F18.0°C 40.2°F4.6°C 41% 15.0 mph SW24.1 kmh SW 24.0 mph38.6 kmh 29.76 in1007.8 mb 0.00 in0.0 mm 0.00 in0.0 mm 0.00 in0.0 mm
12:30 PM 66.1°F18.9°C 40.4°F4.7°C 39% 18.0 mph SW29.0 kmh SW 24.0 mph38.6 kmh 29.76 in1007.8 mb 0.00 in0.0 mm 0.00 in0.0 mm 0.00 in0.0 mm
12:40 PM 66.9°F19.4°C 42.4°F5.8°C 41% 17.0 mph SW27.4 kmh SW 20.0 mph32.2 kmh 29.76 in1007.8 mb 0.00 in0.0 mm 0.00 in0.0 mm 0.00 in0.0 mm
12:50 PM 66.1°F18.9°C 40.4°F4.7°C 39% 13.0 mph SW20.9 kmh SW 20.0 mph32.2 kmh 29.76 in1007.8 mb 0.00 in0.0 mm 0.00 in0.0 mm 0.00 in0.0 mm
01:00 PM 66.0°F18.9°C 41.6°F5.3°C 41% 13.0 mph SW20.9 kmh SW 22.0 mph35.4 kmh 29.76 in1007.8 mb 0.00 in0.0 mm 0.00 in0.0 mm 0.00 in0.0 mm
01:10 PM 64.4°F18.0°C 40.2°F4.6°C 41% 12.0 mph SW19.3 kmh SW 19.0 mph30.6 kmh 29.76 in1007.8 mb 0.00 in0.0 mm 0.00 in0.0 mm 0.00 in0.0 mm
01:20 PM 65.3°F18.5°C 41.0°F5.0°C 41% 13.0 mph SW20.9 kmh SW 22.0 mph35.4 kmh 29.75 in1007.5 mb 0.00 in0.0 mm 0.00 in0.0 mm 0.00 in0.0 mm
01:30 PM 65.0°F18.3°C 40.7°F4.8°C 41% 13.0 mph SW20.9 kmh SW 22.0 mph35.4 kmh 29.75 in1007.5 mb 0.00 in0.0 mm 0.00 in0.0 mm 0.00 in0.0 mm
01:40 PM 65.6°F18.7°C 39.3°F4.1°C 38% 15.0 mph SW24.1 kmh SW 21.0 mph33.8 kmh 29.75 in1007.5 mb 0.00 in0.0 mm 0.00 in0.0 mm 0.00 in0.0 mm
01:50 PM 66.4°F19.1°C 44.4°F6.9°C 45% 12.0 mph SW19.3 kmh SW 17.0 mph27.4 kmh 29.75 in1007.5 mb 0.00 in0.0 mm 0.00 in0.0 mm 0.00 in0.0 mm
02:00 PM 66.5°F19.2°C 41.4°F5.2°C 40% 12.0 mph SW19.3 kmh SW 18.0 mph29.0 kmh 29.75 in1007.5 mb 0.00 in0.0 mm 0.00 in0.0 mm 0.00 in0.0 mm
02:10 PM 67.0°F19.4°C 38.4°F3.6°C 35% 16.0 mph SW25.7 kmh SW 22.0 mph35.4 kmh 29.75 in1007.5 mb 0.00 in0.0 mm 0.00 in0.0 mm 0.00 in0.0 mm
02:20 PM 69.5°F20.8°C 42.1°F5.6°C 37% 15.0 mph SW24.1 kmh SW 19.0 mph30.6 kmh 29.74 in1007.1 mb 0.00 in0.0 mm 0.00 in0.0 mm 0.00 in0.0 mm
02:30 PM 67.8°F19.9°C 39.9°F4.4°C 36% 14.0 mph SW22.5 kmh SW 18.0 mph29.0 kmh 29.74 in1007.1 mb 0.00 in0.0 mm 0.00 in0.0 mm 0.00 in0.0 mm
02:40 PM 67.7°F19.8°C 39.8°F4.3°C 36% 14.0 mph SW22.5 kmh SW 20.0 mph32.2 kmh 29.74 in1007.1 mb 0.00 in0.0 mm 0.00 in0.0 mm 0.00 in0.0 mm
02:50 PM 69.3°F20.7°C 43.3°F6.3°C 39% 16.0 mph SSW25.7 kmh SSW 21.0 mph33.8 kmh 29.74 in1007.1 mb 0.00 in0.0 mm 0.00 in0.0 mm 0.00 in0.0 mm
03:00 PM 69.9°F21.1°C 39.5°F4.2°C 33% 15.0 mph SW24.1 kmh SW 25.0 mph40.2 kmh 29.74 in1007.1 mb 0.00 in0.0 mm 0.00 in0.0 mm 0.00 in0.0 mm
03:10 PM 69.0°F20.6°C 40.2°F4.6°C 35% 13.0 mph SW20.9 kmh SW 20.0 mph32.2 kmh 29.74 in1007.1 mb 0.00 in0.0 mm 0.00 in0.0 mm 0.00 in0.0 mm
03:20 PM 68.4°F20.2°C 38.2°F3.4°C 33% 14.0 mph SW22.5 kmh SW 22.0 mph35.4 kmh 29.75 in1007.5 mb 0.00 in0.0 mm 0.00 in0.0 mm 0.00 in0.0 mm
03:30 PM 67.3°F19.6°C 41.5°F5.3°C 39% 12.0 mph SW19.3 kmh SW 17.0 mph27.4 kmh 29.74 in1007.1 mb 0.00 in0.0 mm 0.00 in0.0 mm 0.00 in0.0 mm
03:40 PM 66.4°F19.1°C 40.0°F4.4°C 38% 12.0 mph SW19.3 kmh SW 17.0 mph27.4 kmh 29.75 in1007.5 mb 0.00 in0.0 mm 0.00 in0.0 mm 0.00 in0.0 mm
03:50 PM 68.7°F20.4°C 39.2°F4.0°C 34% 12.0 mph SW19.3 kmh SW 22.0 mph35.4 kmh 29.74 in1007.1 mb 0.00 in0.0 mm 0.00 in0.0 mm 0.00 in0.0 mm
04:00 PM 69.3°F20.7°C 42.6°F5.9°C 38% 11.0 mph SW17.7 kmh SW 16.0 mph25.7 kmh 29.74 in1007.1 mb 0.00 in0.0 mm 0.00 in0.0 mm 0.00 in0.0 mm
04:10 PM 67.9°F19.9°C 39.2°F4.0°C 35% 13.0 mph SW20.9 kmh SW 20.0 mph32.2 kmh 29.74 in1007.1 mb 0.00 in0.0 mm 0.00 in0.0 mm 0.00 in0.0 mm
04:20 PM 67.3°F19.6°C 40.8°F4.9°C 38% 12.0 mph SW19.3 kmh SW 14.0 mph22.5 kmh 29.73 in1006.8 mb 0.00 in0.0 mm 0.00 in0.0 mm 0.00 in0.0 mm
04:30 PM 68.7°F20.4°C 39.9°F4.4°C 35% 13.0 mph SW20.9 kmh SW 23.0 mph37.0 kmh 29.74 in1007.1 mb 0.00 in0.0 mm 0.00 in0.0 mm 0.00 in0.0 mm
04:40 PM 69.4°F20.8°C 39.8°F4.3°C 34% 13.0 mph SW20.9 kmh SW 20.0 mph32.2 kmh 29.74 in1007.1 mb 0.00 in0.0 mm 0.00 in0.0 mm 0.00 in0.0 mm
04:50 PM 68.5°F20.3°C 38.2°F3.4°C 33% 14.0 mph SW22.5 kmh SW 22.0 mph35.4 kmh 29.73 in1006.8 mb 0.00 in0.0 mm 0.00 in0.0 mm 0.00 in0.0 mm
05:00 PM 68.9°F20.5°C 39.4°F4.1°C 34% 13.0 mph SW20.9 kmh SW 18.0 mph29.0 kmh 29.74 in1007.1 mb 0.00 in0.0 mm 0.00 in0.0 mm 0.00 in0.0 mm
05:10 PM 68.3°F20.2°C 39.6°F4.2°C 35% 14.0 mph SW22.5 kmh SW 25.0 mph40.2 kmh 29.74 in1007.1 mb 0.00 in0.0 mm 0.00 in0.0 mm 0.00 in0.0 mm
05:20 PM 68.6°F20.3°C 39.1°F3.9°C 34% 15.0 mph SW24.1 kmh SW 19.0 mph30.6 kmh 29.74 in1007.1 mb 0.00 in0.0 mm 0.00 in0.0 mm 0.00 in0.0 mm
05:30 PM 68.1°F20.1°C 39.4°F4.1°C 35% 12.0 mph SW19.3 kmh SW 16.0 mph25.7 kmh 29.74 in1007.1 mb 0.00 in0.0 mm 0.00 in0.0 mm 0.00 in0.0 mm
05:40 PM 67.9°F19.9°C 39.2°F4.0°C 35% 9.0 mph SW14.5 kmh SW 13.0 mph20.9 kmh 29.74 in1007.1 mb 0.00 in0.0 mm 0.00 in0.0 mm 0.00 in0.0 mm
05:50 PM 68.2°F20.1°C 39.5°F4.2°C 35% 10.0 mph SW16.1 kmh SW 15.0 mph24.1 kmh 29.74 in1007.1 mb 0.00 in0.0 mm 0.00 in0.0 mm 0.00 in0.0 mm
06:00 PM 68.2°F20.1°C 40.9°F4.9°C 37% 9.0 mph SW14.5 kmh SW 13.0 mph20.9 kmh 29.74 in1007.1 mb 0.00 in0.0 mm 0.00 in0.0 mm 0.00 in0.0 mm
06:10 PM 68.1°F20.1°C 40.8°F4.9°C 37% 11.0 mph SW17.7 kmh SW 16.0 mph25.7 kmh 29.74 in1007.1 mb 0.00 in0.0 mm 0.00 in0.0 mm 0.00 in0.0 mm
06:20 PM 68.0°F20.0°C 40.0°F4.4°C 36% 10.0 mph SW16.1 kmh SW 14.0 mph22.5 kmh 29.74 in1007.1 mb 0.00 in0.0 mm 0.00 in0.0 mm 0.00 in0.0 mm
06:30 PM 67.3°F19.6°C 40.8°F4.9°C 38% 8.0 mph SW12.9 kmh SW 12.0 mph19.3 kmh 29.74 in1007.1 mb 0.00 in0.0 mm 0.00 in0.0 mm 0.00 in0.0 mm
06:40 PM 67.0°F19.4°C 40.5°F4.7°C 38% 9.0 mph SW14.5 kmh SW 15.0 mph24.1 kmh 29.75 in1007.5 mb 0.00 in0.0 mm 0.00 in0.0 mm 0.00 in0.0 mm
06:50 PM 66.9°F19.4°C 41.8°F5.4°C 40% 7.0 mph SW11.3 kmh SW 12.0 mph19.3 kmh 29.76 in1007.8 mb 0.00 in0.0 mm 0.00 in0.0 mm 0.00 in0.0 mm
07:00 PM 66.2°F19.0°C 42.4°F5.8°C 42% 5.0 mph SW8.0 kmh SW 6.0 mph9.7 kmh 29.77 in1008.1 mb 0.00 in0.0 mm 0.00 in0.0 mm 0.00 in0.0 mm
07:10 PM 63.8°F17.7°C 42.0°F5.6°C 45% 5.0 mph SW8.0 kmh SW 8.0 mph12.9 kmh 29.77 in1008.1 mb 0.00 in0.0 mm 0.00 in0.0 mm 0.00 in0.0 mm
07:20 PM 62.1°F16.7°C 41.1°F5.1°C 46% 6.0 mph SW9.7 kmh SW 8.0 mph12.9 kmh 29.77 in1008.1 mb 0.00 in0.0 mm 0.00 in0.0 mm 0.00 in0.0 mm
07:30 PM 61.3°F16.3°C 41.4°F5.2°C 48% 5.0 mph SW8.0 kmh SW 7.0 mph11.3 kmh 29.77 in1008.1 mb 0.00 in0.0 mm 0.00 in0.0 mm 0.00 in0.0 mm
07:40 PM 61.3°F16.3°C 42.5°F5.8°C 50% 5.0 mph SW8.0 kmh SW 7.0 mph11.3 kmh 29.77 in1008.1 mb 0.00 in0.0 mm 0.00 in0.0 mm 0.00 in0.0 mm
07:50 PM 60.9°F16.1°C 44.1°F6.7°C 54% 3.0 mph WSW4.8 kmh WSW 4.0 mph6.4 kmh 29.77 in1008.1 mb 0.00 in0.0 mm 0.00 in0.0 mm 0.00 in0.0 mm
08:00 PM 60.1°F15.6°C 43.4°F6.3°C 54% 3.0 mph SW4.8 kmh SW 6.0 mph9.7 kmh 29.79 in1008.8 mb 0.00 in0.0 mm 0.00 in0.0 mm 0.00 in0.0 mm
08:10 PM 58.7°F14.8°C 43.0°F6.1°C 56% 3.0 mph WSW4.8 kmh WSW 6.0 mph9.7 kmh 29.79 in1008.8 mb 0.00 in0.0 mm 0.00 in0.0 mm 0.00 in0.0 mm
08:20 PM 57.8°F14.3°C 43.1°F6.2°C 58% 3.0 mph WSW4.8 kmh WSW 6.0 mph9.7 kmh 29.79 in1008.8 mb 0.00 in0.0 mm 0.00 in0.0 mm 0.00 in0.0 mm
08:30 PM 55.8°F13.2°C 43.4°F6.3°C 63% 3.0 mph WSW4.8 kmh WSW 5.0 mph8.0 kmh 29.80 in1009.1 mb 0.00 in0.0 mm 0.00 in0.0 mm 0.00 in0.0 mm
08:40 PM 54.7°F12.6°C 43.2°F6.2°C 65% 3.0 mph WSW4.8 kmh WSW 5.0 mph8.0 kmh 29.81 in1009.5 mb 0.00 in0.0 mm 0.00 in0.0 mm 0.00 in0.0 mm
08:50 PM 54.3°F12.4°C 43.2°F6.2°C 66% 2.0 mph WSW3.2 kmh WSW 4.0 mph6.4 kmh 29.81 in1009.5 mb 0.00 in0.0 mm 0.00 in0.0 mm 0.00 in0.0 mm
09:00 PM 53.6°F12.0°C 42.9°F6.1°C 67% Calm Calm -- 29.82 in1009.8 mb 0.00 in0.0 mm 0.00 in0.0 mm 0.00 in0.0 mm
09:10 PM 52.3°F11.3°C 42.4°F5.8°C 69% 1.0 mph S1.6 kmh S 3.0 mph4.8 kmh 29.82 in1009.8 mb 0.00 in0.0 mm 0.00 in0.0 mm 0.00 in0.0 mm
09:20 PM 51.0°F10.6°C 42.3°F5.7°C 72% 3.0 mph S4.8 kmh S 6.0 mph9.7 kmh 29.83 in1010.2 mb 0.00 in0.0 mm 0.00 in0.0 mm 0.00 in0.0 mm
09:30 PM 50.7°F10.4°C 42.0°F5.6°C 72% 1.0 mph SSW1.6 kmh SSW 5.0 mph8.0 kmh 29.84 in1010.5 mb 0.00 in0.0 mm 0.00 in0.0 mm 0.00 in0.0 mm
09:40 PM 50.6°F10.3°C 41.9°F5.5°C 72% 3.0 mph SSW4.8 kmh SSW 5.0 mph8.0 kmh 29.84 in1010.5 mb 0.00 in0.0 mm 0.00 in0.0 mm 0.00 in0.0 mm
09:50 PM 50.1°F10.1°C 41.8°F5.4°C 73% 2.0 mph S3.2 kmh S 4.0 mph6.4 kmh 29.85 in1010.8 mb 0.00 in0.0 mm 0.00 in0.0 mm 0.00 in0.0 mm
10:00 PM 49.4°F9.7°C 41.8°F5.4°C 75% 3.0 mph S4.8 kmh S 5.0 mph8.0 kmh 29.85 in1010.8 mb 0.00 in0.0 mm 0.00 in0.0 mm 0.00 in0.0 mm
10:10 PM 48.9°F9.4°C 41.3°F5.2°C 75% 2.0 mph S3.2 kmh S 3.0 mph4.8 kmh 29.85 in1010.8 mb 0.00 in0.0 mm 0.00 in0.0 mm 0.00 in0.0 mm
10:20 PM 48.0°F8.9°C 41.1°F5.1°C 77% 6.0 mph S9.7 kmh S 7.0 mph11.3 kmh 29.86 in1011.2 mb 0.00 in0.0 mm 0.00 in0.0 mm 0.00 in0.0 mm
10:30 PM 47.7°F8.7°C 41.2°F5.1°C 78% 3.0 mph S4.8 kmh S 5.0 mph8.0 kmh 29.86 in1011.2 mb 0.00 in0.0 mm 0.00 in0.0 mm 0.00 in0.0 mm
10:40 PM 47.1°F8.4°C 41.2°F5.1°C 80% 2.0 mph S3.2 kmh S 3.0 mph4.8 kmh 29.86 in1011.2 mb 0.00 in0.0 mm 0.00 in0.0 mm 0.00 in0.0 mm
10:50 PM 46.8°F8.2°C 41.0°F5.0°C 80% 3.0 mph S4.8 kmh S 4.0 mph6.4 kmh 29.86 in1011.2 mb 0.00 in0.0 mm 0.00 in0.0 mm 0.00 in0.0 mm
11:00 PM 47.3°F8.5°C 41.8°F5.4°C 81% 4.0 mph SE6.4 kmh SE 6.0 mph9.7 kmh 29.85 in1010.8 mb 0.00 in0.0 mm 0.00 in0.0 mm 0.00 in0.0 mm
11:10 PM 47.1°F8.4°C 41.6°F5.3°C 81% 4.0 mph S6.4 kmh S 5.0 mph8.0 kmh 29.86 in1011.2 mb 0.00 in0.0 mm 0.00 in0.0 mm 0.00 in0.0 mm
11:20 PM 46.9°F8.3°C 41.7°F5.4°C 82% 5.0 mph S8.0 kmh S 7.0 mph11.3 kmh 29.86 in1011.2 mb 0.00 in0.0 mm 0.00 in0.0 mm 0.00 in0.0 mm
11:30 PM 46.4°F8.0°C 41.2°F5.1°C 82% 5.0 mph SSW8.0 kmh SSW 7.0 mph11.3 kmh 29.86 in1011.2 mb 0.00 in0.0 mm 0.00 in0.0 mm 0.00 in0.0 mm
11:40 PM 45.5°F7.5°C 40.6°F4.8°C 83% 5.0 mph S8.0 kmh S 6.0 mph9.7 kmh 29.86 in1011.2 mb 0.00 in0.0 mm 0.00 in0.0 mm 0.00 in0.0 mm
11:50 PM 44.7°F7.1°C 40.5°F4.7°C 85% 3.0 mph SSE4.8 kmh SSE 4.0 mph6.4 kmh 29.86 in1011.2 mb 0.00 in0.0 mm 0.00 in0.0 mm 0.00 in0.0 mm